createdAt,value
2022-09-04T00:00:10.540Z,17.10
2022-09-04T00:02:49.925Z,17.00
2022-09-04T00:05:38.330Z,17.00
2022-09-04T00:08:23.526Z,17.00
2022-09-04T00:11:01.232Z,17.00
2022-09-04T00:13:36.573Z,17.00
2022-09-04T00:16:20.762Z,16.90
2022-09-04T00:19:25.877Z,17.00
2022-09-04T00:21:56.592Z,16.90
2022-09-04T00:24:31.170Z,16.90
2022-09-04T00:27:08.020Z,16.80
2022-09-04T00:29:53.289Z,16.80
2022-09-04T00:32:41.752Z,16.80
2022-09-04T00:35:14.363Z,16.80
2022-09-04T00:38:05.209Z,16.80
2022-09-04T00:40:37.889Z,16.80
2022-09-04T00:43:10.680Z,16.80
2022-09-04T00:46:15.181Z,16.80
2022-09-04T00:48:59.765Z,16.80
2022-09-04T00:51:43.334Z,16.80
2022-09-04T00:54:26.237Z,16.80
2022-09-04T00:56:58.980Z,16.80
2022-09-04T00:59:37.800Z,16.70
2022-09-04T01:02:45.104Z,16.70
2022-09-04T01:05:23.170Z,16.70
2022-09-04T01:08:07.639Z,16.70
2022-09-04T01:11:11.770Z,16.70
2022-09-04T01:14:14.472Z,16.70
2022-09-04T01:16:49.726Z,16.70
2022-09-04T01:19:29.607Z,16.70
2022-09-04T01:22:28.173Z,16.60
2022-09-04T01:25:16.131Z,16.60
2022-09-04T01:28:06.711Z,16.60
2022-09-04T01:30:56.480Z,16.60
2022-09-04T01:33:29.196Z,16.60
2022-09-04T01:36:26.412Z,16.60
2022-09-04T01:38:55.762Z,16.60
2022-09-04T01:41:38.308Z,16.60
2022-09-04T01:44:07.240Z,16.60
2022-09-04T01:46:47.075Z,16.50
2022-09-04T01:49:17.752Z,16.50
2022-09-04T01:52:02.707Z,16.50
2022-09-04T01:55:17.124Z,16.50
2022-09-04T01:58:05.398Z,16.50
2022-09-04T02:00:34.971Z,16.50
2022-09-04T02:03:16.221Z,16.50
2022-09-04T02:05:42.977Z,16.50
2022-09-04T02:08:24.795Z,16.50
2022-09-04T02:11:27.691Z,16.50
2022-09-04T02:14:06.664Z,16.50
2022-09-04T02:16:42.744Z,16.50
2022-09-04T02:19:43.525Z,16.50
2022-09-04T02:22:45.457Z,16.50
2022-09-04T02:25:26.262Z,16.50
2022-09-04T02:27:54.759Z,16.40
2022-09-04T02:30:21.667Z,16.40
2022-09-04T02:32:51.849Z,16.40
2022-09-04T02:35:28.765Z,16.40
2022-09-04T02:38:01.324Z,16.40
2022-09-04T02:40:55.216Z,16.40
2022-09-04T02:44:12.913Z,16.40
2022-09-04T02:46:56.686Z,16.40
2022-09-04T02:49:43.457Z,16.40
2022-09-04T02:52:40.485Z,16.40
2022-09-04T02:55:39.961Z,16.40
2022-09-04T02:58:34.125Z,16.40
2022-09-04T03:01:22.298Z,16.30
2022-09-04T03:03:54.606Z,16.30
2022-09-04T03:06:25.721Z,16.30
2022-09-04T03:08:57.025Z,16.30
2022-09-04T03:11:36.285Z,16.30
2022-09-04T03:14:07.398Z,16.30
2022-09-04T03:16:57.760Z,16.30
2022-09-04T03:19:40.093Z,16.30
2022-09-04T03:22:12.729Z,16.30
2022-09-04T03:24:55.791Z,16.30
2022-09-04T03:27:22.547Z,16.20
2022-09-04T03:30:12.735Z,16.20
2022-09-04T03:32:42.253Z,16.20
2022-09-04T03:35:33.671Z,16.20
2022-09-04T03:38:07.448Z,16.20
2022-09-04T03:40:41.654Z,16.10
2022-09-04T03:43:27.209Z,16.10
2022-09-04T03:46:09.188Z,16.10
2022-09-04T03:49:12.777Z,16.10
2022-09-04T03:51:58.722Z,16.10
2022-09-04T03:54:31.874Z,16.10
2022-09-04T03:57:11.921Z,16.10
2022-09-04T03:59:45.640Z,16.10
2022-09-04T04:02:18.897Z,16.10
2022-09-04T04:04:54.292Z,16.00
2022-09-04T04:07:26.978Z,16.00
2022-09-04T04:10:02.549Z,16.00
2022-09-04T04:13:01.121Z,15.90
2022-09-04T04:16:01.186Z,15.90
2022-09-04T04:18:53.460Z,16.00
2022-09-04T04:21:37.299Z,15.90
2022-09-04T04:24:22.056Z,15.90
2022-09-04T04:27:00.726Z,15.90
2022-09-04T04:29:42.878Z,15.90
2022-09-04T04:32:39.402Z,15.90
2022-09-04T04:35:25.149Z,15.90
2022-09-04T04:38:24.789Z,15.90
2022-09-04T04:40:57.171Z,15.80
2022-09-04T04:43:51.084Z,15.90
2022-09-04T04:46:58.330Z,15.90
2022-09-04T04:50:03.305Z,15.70
2022-09-04T04:52:44.665Z,15.60
2022-09-04T04:55:29.713Z,15.60
2022-09-04T04:58:23.238Z,15.60
2022-09-04T05:01:06.287Z,15.60
2022-09-04T05:03:56.354Z,15.60
2022-09-04T05:06:38.784Z,15.60
2022-09-04T05:09:09.636Z,15.70
2022-09-04T05:12:24.027Z,15.70
2022-09-04T05:14:52.821Z,15.70
2022-09-04T05:17:45.309Z,15.70
2022-09-04T05:20:38.384Z,15.70
2022-09-04T05:23:17.189Z,15.70
2022-09-04T05:29:47.515Z,15.60
2022-09-04T05:32:21.709Z,15.70
2022-09-04T05:35:06.606Z,15.70
2022-09-04T05:38:06.081Z,15.70
2022-09-04T05:40:41.894Z,15.70
2022-09-04T05:43:17.275Z,15.70
2022-09-04T05:46:09.398Z,15.70
2022-09-04T05:49:06.811Z,15.80
2022-09-04T05:52:00.878Z,15.80
2022-09-04T05:55:04.618Z,15.80
2022-09-04T05:57:55.237Z,15.70
2022-09-04T06:00:22.472Z,15.70
2022-09-04T06:03:19.363Z,15.70
2022-09-04T06:06:06.644Z,15.70
2022-09-04T06:08:41.780Z,15.70
2022-09-04T06:11:23.677Z,15.70
2022-09-04T06:13:58.460Z,15.60
2022-09-04T06:16:58.023Z,15.70
2022-09-04T06:19:56.225Z,15.70
2022-09-04T06:22:25.665Z,15.80
2022-09-04T06:25:01.680Z,15.80
2022-09-04T06:27:49.839Z,15.90
2022-09-04T06:30:17.789Z,15.90
2022-09-04T06:32:57.267Z,15.90
2022-09-04T06:35:40.749Z,15.90
2022-09-04T06:38:15.071Z,16.00
2022-09-04T06:40:42.625Z,16.00
2022-09-04T06:43:15.750Z,16.00
2022-09-04T06:45:45.270Z,16.10
2022-09-04T06:48:25.350Z,16.20
2022-09-04T06:51:08.870Z,16.30
2022-09-04T06:53:39.397Z,16.30
2022-09-04T06:56:16.258Z,16.40
2022-09-04T06:59:07.042Z,16.40
2022-09-04T07:02:10.789Z,16.40
2022-09-04T07:04:41.661Z,16.50
2022-09-04T07:07:34.628Z,16.50
2022-09-04T07:10:07.241Z,16.60
2022-09-04T07:13:03.011Z,16.60
2022-09-04T07:15:48.569Z,16.60
2022-09-04T07:18:22.853Z,16.70
2022-09-04T07:21:19.852Z,16.80
2022-09-04T07:24:33.095Z,16.90
2022-09-04T07:27:18.048Z,17.00
2022-09-04T07:29:46.561Z,17.10
2022-09-04T07:32:26.973Z,17.10
2022-09-04T07:35:01.638Z,17.20
2022-09-04T07:37:56.032Z,17.30
2022-09-04T07:40:32.994Z,17.30
2022-09-04T07:43:25.376Z,17.40
2022-09-04T07:46:05.332Z,17.50
2022-09-04T07:49:02.882Z,17.50
2022-09-04T07:51:36.192Z,17.50
2022-09-04T07:54:05.449Z,17.60
2022-09-04T07:57:13.483Z,17.70
2022-09-04T07:59:55.142Z,17.80
2022-09-04T08:02:39.883Z,17.90
2022-09-04T08:05:15.509Z,17.90
2022-09-04T08:08:13.987Z,18.00
2022-09-04T08:11:05.007Z,18.10
2022-09-04T08:13:53.736Z,18.20
2022-09-04T08:16:35.355Z,18.20
2022-09-04T08:19:41.572Z,18.20
2022-09-04T08:22:12.233Z,18.20
2022-09-04T08:25:04.473Z,18.20
2022-09-04T08:27:49.909Z,18.20
2022-09-04T08:30:19.426Z,18.20
2022-09-04T08:33:05.856Z,18.20
2022-09-04T08:35:56.810Z,18.20
2022-09-04T08:38:32.521Z,18.20
2022-09-04T08:41:29.961Z,18.20
2022-09-04T08:44:16.759Z,18.30
2022-09-04T08:46:52.924Z,18.30
2022-09-04T08:49:46.348Z,18.30
2022-09-04T08:52:39.908Z,18.40
2022-09-04T08:55:21.485Z,18.50
2022-09-04T08:57:59.349Z,18.50
2022-09-04T09:01:08.809Z,18.60
2022-09-04T09:04:12.923Z,18.70
2022-09-04T09:07:15.071Z,18.80
2022-09-04T09:09:48.070Z,18.90
2022-09-04T09:12:47.396Z,19.00
2022-09-04T09:15:30.023Z,19.10
2022-09-04T09:18:01.155Z,19.20
2022-09-04T09:20:28.689Z,19.40
2022-09-04T09:23:18.077Z,19.50
2022-09-04T09:26:15.684Z,19.60
2022-09-04T09:29:19.276Z,19.70
2022-09-04T09:32:23.357Z,19.90
2022-09-04T09:35:47.802Z,19.90
2022-09-04T09:38:29.426Z,20.00
2022-09-04T09:41:07.704Z,20.10
2022-09-04T09:43:42.858Z,20.20
2022-09-04T09:46:23.327Z,20.40
2022-09-04T09:49:15.216Z,20.50
2022-09-04T09:52:02.575Z,20.50
2022-09-04T09:55:03.400Z,20.70
2022-09-04T09:58:03.550Z,20.70
2022-09-04T10:00:57.212Z,20.80
2022-09-04T10:04:10.049Z,20.80
2022-09-04T10:07:01.155Z,21.00
2022-09-04T10:09:54.649Z,21.10
2022-09-04T10:12:36.532Z,21.20
2022-09-04T10:15:21.915Z,21.20
2022-09-04T10:18:08.084Z,21.30
2022-09-04T10:21:12.909Z,21.40
2022-09-04T10:23:58.797Z,21.40
2022-09-04T10:27:09.919Z,21.40
2022-09-04T10:30:02.808Z,21.40
2022-09-04T10:32:33.034Z,21.40
2022-09-04T10:35:22.308Z,21.50
2022-09-04T10:38:07.503Z,21.60
2022-09-04T10:40:57.925Z,21.60
2022-09-04T10:43:58.502Z,21.70
2022-09-04T10:46:46.406Z,21.70
2022-09-04T10:49:50.511Z,21.60
2022-09-04T10:52:31.859Z,21.60
2022-09-04T10:55:14.781Z,21.80
2022-09-04T10:57:50.233Z,21.80
2022-09-04T11:00:19.102Z,22.00
2022-09-04T11:03:02.511Z,22.10
2022-09-04T11:05:51.029Z,22.20
2022-09-04T11:08:36.283Z,22.30
2022-09-04T11:11:24.412Z,22.40
2022-09-04T11:14:06.356Z,22.60
2022-09-04T11:16:45.338Z,22.70
2022-09-04T11:19:28.730Z,22.70
2022-09-04T11:22:04.257Z,22.80
2022-09-04T11:24:43.889Z,22.80
2022-09-04T11:27:44.434Z,22.90
2022-09-04T11:30:14.039Z,22.90
2022-09-04T11:33:06.064Z,23.00
2022-09-04T11:35:49.115Z,23.10
2022-09-04T11:38:28.559Z,23.10
2022-09-04T11:41:28.344Z,23.20
2022-09-04T11:44:27.845Z,23.20
2022-09-04T11:47:40.037Z,23.30
2022-09-04T11:50:27.288Z,23.30
2022-09-04T11:53:13.879Z,23.40
2022-09-04T11:56:19.025Z,23.40
2022-09-04T11:59:04.976Z,23.50
2022-09-04T12:01:31.700Z,23.50
2022-09-04T12:04:03.900Z,23.50
2022-09-04T12:06:51.209Z,23.50
2022-09-04T12:09:38.888Z,23.50
2022-09-04T12:12:26.741Z,23.50
2022-09-04T12:15:23.472Z,23.50
2022-09-04T12:18:08.489Z,23.50
2022-09-04T12:20:35.162Z,23.50
2022-09-04T12:23:23.068Z,23.50
2022-09-04T12:26:09.376Z,23.50
2022-09-04T12:28:52.268Z,23.60
2022-09-04T12:31:21.962Z,23.60
2022-09-04T12:34:06.962Z,23.70
2022-09-04T12:36:42.746Z,23.90
2022-09-04T12:39:39.663Z,24.00
2022-09-04T12:42:29.127Z,24.10
2022-09-04T12:45:20.657Z,24.00
2022-09-04T12:48:23.595Z,24.00
2022-09-04T12:50:56.366Z,24.00
2022-09-04T12:53:49.264Z,24.00
2022-09-04T12:56:19.894Z,24.00
2022-09-04T12:59:15.993Z,24.00
2022-09-04T13:01:54.633Z,24.00
2022-09-04T13:04:27.517Z,24.00
2022-09-04T13:07:15.907Z,24.10
2022-09-04T13:10:19.697Z,24.10
2022-09-04T13:13:14.786Z,24.20
2022-09-04T13:15:58.041Z,24.30
2022-09-04T13:18:52.172Z,24.30
2022-09-04T13:21:18.835Z,24.30
2022-09-04T13:24:02.209Z,24.30
2022-09-04T13:27:00.678Z,24.30
2022-09-04T13:30:05.678Z,24.30
2022-09-04T13:32:53.450Z,24.30
2022-09-04T13:35:47.395Z,24.40
2022-09-04T13:38:35.111Z,24.40
2022-09-04T13:41:21.116Z,24.40
2022-09-04T13:44:05.609Z,24.50
2022-09-04T13:46:51.962Z,24.30
2022-09-04T13:49:24.347Z,24.20
2022-09-04T13:52:01.780Z,24.00
2022-09-04T13:54:37.026Z,23.90
2022-09-04T13:57:09.305Z,23.90
2022-09-04T13:59:36.072Z,24.00
2022-09-04T14:02:05.216Z,24.10
2022-09-04T14:04:36.633Z,24.20
2022-09-04T14:07:07.041Z,24.20
2022-09-04T14:09:41.895Z,24.20
2022-09-04T14:12:32.094Z,24.30
2022-09-04T14:15:58.478Z,24.40
2022-09-04T14:18:29.410Z,24.50
2022-09-04T14:21:01.105Z,24.40
2022-09-04T14:23:44.025Z,24.30
2022-09-04T14:26:48.764Z,24.10
2022-09-04T14:29:22.985Z,23.90
2022-09-04T14:32:04.577Z,23.70
2022-09-04T14:35:02.229Z,23.60
2022-09-04T14:38:13.600Z,23.60
2022-09-04T14:41:27.591Z,23.50
2022-09-04T14:47:00.097Z,23.30
2022-09-04T14:49:31.710Z,23.30
2022-09-04T14:52:03.171Z,23.30
2022-09-04T14:54:36.041Z,23.30
2022-09-04T14:57:11.393Z,23.30
2022-09-04T14:59:41.417Z,23.30
2022-09-04T15:02:14.340Z,23.30
2022-09-04T15:04:46.996Z,23.30
2022-09-04T15:07:38.396Z,23.40
2022-09-04T15:10:16.340Z,23.40
2022-09-04T15:12:49.589Z,23.40
2022-09-04T15:15:20.239Z,23.60
2022-09-04T15:17:52.869Z,23.60
2022-09-04T15:20:24.154Z,23.50
2022-09-04T15:22:58.535Z,23.40
2022-09-04T15:25:57.756Z,23.40
2022-09-04T15:28:46.439Z,23.40
2022-09-04T15:31:31.684Z,23.30
2022-09-04T15:34:12.333Z,23.30
2022-09-04T15:36:39.329Z,23.30
2022-09-04T15:39:10.320Z,23.30
2022-09-04T15:41:47.469Z,23.30
2022-09-04T15:44:30.089Z,23.30
2022-09-04T15:47:06.193Z,23.30
2022-09-04T15:50:18.677Z,23.30
2022-09-04T15:53:14.944Z,23.20
2022-09-04T15:55:42.673Z,23.10
2022-09-04T15:58:29.295Z,23.10
2022-09-04T16:01:23.724Z,23.10
2022-09-04T16:04:12.767Z,23.10
2022-09-04T16:06:47.991Z,23.10
2022-09-04T16:09:43.323Z,23.10
2022-09-04T16:12:30.772Z,23.10
2022-09-04T16:15:03.275Z,23.00
2022-09-04T16:17:32.352Z,22.90
2022-09-04T16:20:22.223Z,22.80
2022-09-04T16:22:58.548Z,22.80
2022-09-04T16:25:29.162Z,22.80
2022-09-04T16:28:02.413Z,22.80
2022-09-04T16:30:37.018Z,22.80
2022-09-04T16:33:04.609Z,22.70
2022-09-04T16:35:34.509Z,22.70
2022-09-04T16:38:12.569Z,22.60
2022-09-04T16:40:40.691Z,22.50
2022-09-04T16:43:32.128Z,22.50
2022-09-04T16:46:08.091Z,22.40
2022-09-04T16:48:48.627Z,22.30
2022-09-04T16:51:40.562Z,22.20
2022-09-04T16:54:18.159Z,22.10
2022-09-04T16:56:49.730Z,22.10
2022-09-04T16:59:29.040Z,22.00
2022-09-04T17:02:03.186Z,22.00
2022-09-04T17:04:42.615Z,22.00
2022-09-04T17:07:13.052Z,21.90
2022-09-04T17:10:14.736Z,21.90
2022-09-04T17:12:49.499Z,21.90
2022-09-04T17:15:22.618Z,22.00
2022-09-04T17:17:51.160Z,21.90
2022-09-04T17:20:24.128Z,21.90
2022-09-04T17:28:58.848Z,21.90
2022-09-04T17:29:13.985Z,21.80
2022-09-04T17:29:34.933Z,21.80
2022-09-04T17:32:44.286Z,21.80
2022-09-04T17:40:33.384Z,21.70
2022-09-04T17:40:50.302Z,21.70
2022-09-04T17:41:50.664Z,21.70
2022-09-04T17:44:31.845Z,21.60
2022-09-04T17:47:21.802Z,21.50
2022-09-04T17:49:50.714Z,21.40
2022-09-04T17:52:33.563Z,21.40
2022-09-04T17:55:06.638Z,21.30
2022-09-04T17:57:42.310Z,21.30
2022-09-04T18:00:10.186Z,21.20
2022-09-04T18:02:53.582Z,21.10
2022-09-04T18:05:53.170Z,21.10
2022-09-04T18:08:25.689Z,21.00
2022-09-04T18:11:14.261Z,20.80
2022-09-04T18:13:40.959Z,20.80
2022-09-04T18:16:16.622Z,20.80
2022-09-04T18:18:48.041Z,20.80
2022-09-04T18:21:27.209Z,20.70
2022-09-04T18:24:24.077Z,20.60
2022-09-04T18:27:07.665Z,20.50
2022-09-04T18:34:03.409Z,20.50
2022-09-04T18:37:07.357Z,20.40
2022-09-04T18:37:24.103Z,20.30
2022-09-04T18:39:08.916Z,20.20
2022-09-04T18:45:45.497Z,20.20
2022-09-04T18:50:39.645Z,20.10
2022-09-04T18:50:44.807Z,20.00
2022-09-04T18:53:44.270Z,19.90
2022-09-04T18:56:32.169Z,19.90
2022-09-04T18:59:02.586Z,19.80
2022-09-04T19:01:50.584Z,19.70
2022-09-04T19:04:41.549Z,19.70
2022-09-04T19:07:32.611Z,19.70
2022-09-04T19:10:06.439Z,19.60
2022-09-04T19:12:53.866Z,19.60
2022-09-04T19:15:46.025Z,19.50
2022-09-04T19:18:26.882Z,19.40
2022-09-04T19:21:14.452Z,19.30
2022-09-04T19:23:44.387Z,19.30
2022-09-04T19:26:28.285Z,19.20
2022-09-04T19:29:00.562Z,19.20
2022-09-04T19:31:33.771Z,19.10
2022-09-04T19:34:18.631Z,19.10
2022-09-04T19:36:53.660Z,19.00
2022-09-04T19:45:57.035Z,19.00
2022-09-04T19:46:04.236Z,18.90
2022-09-04T19:46:17.045Z,18.70
2022-09-04T19:48:27.071Z,18.70
2022-09-04T19:53:22.876Z,18.60
2022-09-04T19:54:11.129Z,18.60
2022-09-04T19:57:32.752Z,18.50
2022-09-04T19:59:44.794Z,18.50
2022-09-04T20:02:31.462Z,18.40
2022-09-04T20:05:00.175Z,18.40
2022-09-04T20:07:41.168Z,18.30
2022-09-04T20:10:45.231Z,18.10
2022-09-04T20:13:19.260Z,18.00
2022-09-04T20:16:25.095Z,18.00
2022-09-04T20:19:14.273Z,17.90
2022-09-04T20:21:53.609Z,17.90
2022-09-04T20:24:40.575Z,17.80
2022-09-04T20:27:30.509Z,17.80
2022-09-04T20:30:07.722Z,17.80
2022-09-04T20:32:44.293Z,17.70
2022-09-04T20:35:33.341Z,17.70
2022-09-04T20:38:30.608Z,17.60
2022-09-04T20:41:22.394Z,17.60
2022-09-04T20:44:22.054Z,17.60
2022-09-04T20:52:45.079Z,17.50
2022-09-04T20:52:50.477Z,17.50
2022-09-04T20:53:21.370Z,17.40
2022-09-04T20:55:51.017Z,17.30
2022-09-04T21:01:55.002Z,17.20
2022-09-04T21:03:23.995Z,17.20
2022-09-04T21:04:00.251Z,17.10
2022-09-04T21:06:34.803Z,17.10
2022-09-04T21:09:33.481Z,17.00
2022-09-04T21:12:05.760Z,17.00
2022-09-04T21:14:45.377Z,16.90
2022-09-04T21:17:37.470Z,16.90
2022-09-04T21:20:35.003Z,16.80
2022-09-04T21:23:16.884Z,16.70
2022-09-04T21:25:58.438Z,16.70
2022-09-04T21:28:28.071Z,16.60
2022-09-04T21:31:17.583Z,16.60
2022-09-04T21:34:24.505Z,16.50
2022-09-04T21:37:00.526Z,16.50
2022-09-04T21:39:56.374Z,16.50
2022-09-04T21:42:46.121Z,16.50
2022-09-04T21:45:25.994Z,16.50
2022-09-04T21:47:58.428Z,16.40
2022-09-04T21:50:43.633Z,16.30
2022-09-04T21:53:17.695Z,16.30
2022-09-04T22:02:21.634Z,16.30
2022-09-04T22:02:46.080Z,16.20
2022-09-04T22:02:51.300Z,16.20
2022-09-04T22:05:50.106Z,16.20
2022-09-04T22:13:27.299Z,16.20
2022-09-04T22:13:39.969Z,16.10
2022-09-04T22:14:50.698Z,16.10
2022-09-04T22:17:35.156Z,16.10
2022-09-04T22:20:22.664Z,16.00
2022-09-04T22:22:57.961Z,16.00
2022-09-04T22:26:09.191Z,15.90
2022-09-04T22:29:00.493Z,15.80
2022-09-04T22:31:30.298Z,15.80
2022-09-04T22:34:17.730Z,15.70
2022-09-04T22:37:22.941Z,15.70
2022-09-04T22:40:01.140Z,15.70
2022-09-04T22:42:34.658Z,15.70
2022-09-04T22:45:06.867Z,15.60
2022-09-04T22:47:54.807Z,15.40
2022-09-04T22:50:48.770Z,15.40
2022-09-04T22:53:34.606Z,15.30
2022-09-04T22:56:23.473Z,15.30
2022-09-04T22:59:21.255Z,15.30
2022-09-04T23:01:53.947Z,15.30
2022-09-04T23:04:22.814Z,15.20
2022-09-04T23:12:08.152Z,15.20
2022-09-04T23:13:44.521Z,15.20
2022-09-04T23:13:57.111Z,15.10
2022-09-04T23:16:52.221Z,15.00
2022-09-04T23:23:35.022Z,14.90
2022-09-04T23:26:45.162Z,14.90
2022-09-04T23:26:50.363Z,14.90
2022-09-04T23:28:58.842Z,15.00
2022-09-04T23:31:48.003Z,15.00
2022-09-04T23:34:31.036Z,15.00
2022-09-04T23:37:22.376Z,15.00
2022-09-04T23:40:12.206Z,14.90
2022-09-04T23:42:56.473Z,14.80
2022-09-04T23:45:34.253Z,14.70
2022-09-04T23:48:15.824Z,14.60
2022-09-04T23:50:57.583Z,14.60
2022-09-04T23:54:24.888Z,14.60
2022-09-04T23:57:26.219Z,14.50
